createdAt,value
2022-11-08T00:02:23.292Z,11.04
2022-11-08T00:04:50.062Z,11.08
2022-11-08T00:07:35.448Z,11.05
2022-11-08T00:10:20.733Z,11.06
2022-11-08T00:13:05.689Z,11.05
2022-11-08T00:15:38.587Z,11.08
2022-11-08T00:18:07.089Z,11.11
2022-11-08T00:20:34.440Z,11.08
2022-11-08T00:23:01.036Z,11.06
2022-11-08T00:25:27.635Z,11.08
2022-11-08T00:27:54.204Z,11.05
2022-11-08T00:30:20.907Z,11.06
2022-11-08T00:32:47.463Z,11.09
2022-11-08T00:35:14.102Z,11.06
2022-11-08T00:37:40.659Z,11.12
2022-11-08T00:40:07.612Z,11.09
2022-11-08T00:42:34.242Z,11.10
2022-11-08T00:45:00.885Z,11.06
2022-11-08T00:47:27.421Z,11.02
2022-11-08T00:49:53.993Z,11.06
2022-11-08T00:52:20.598Z,11.02
2022-11-08T00:54:47.197Z,10.98
2022-11-08T00:57:13.789Z,10.94
2022-11-08T00:59:40.329Z,10.90
2022-11-08T01:02:06.969Z,10.92
2022-11-08T01:04:33.609Z,10.93
2022-11-08T01:07:00.187Z,10.83
2022-11-08T01:09:26.818Z,10.89
2022-11-08T01:11:53.422Z,10.84
2022-11-08T01:14:19.996Z,10.80
2022-11-08T01:16:46.599Z,10.78
2022-11-08T01:19:13.215Z,10.74
2022-11-08T01:21:39.824Z,10.67
2022-11-08T01:24:07.036Z,10.65
2022-11-08T01:26:33.622Z,10.64
2022-11-08T01:29:00.352Z,10.66
2022-11-08T01:31:32.060Z,10.69
2022-11-08T01:33:59.933Z,10.62
2022-11-08T01:36:27.571Z,10.62
2022-11-08T01:38:54.693Z,10.65
2022-11-08T01:41:22.699Z,10.70
2022-11-08T01:43:50.680Z,10.68
2022-11-08T01:46:20.078Z,10.73
2022-11-08T01:48:54.740Z,10.70
2022-11-08T01:51:26.005Z,10.65
2022-11-08T01:53:52.767Z,10.60
2022-11-08T01:56:21.212Z,10.64
2022-11-08T01:58:53.159Z,10.62
2022-11-08T02:01:19.776Z,10.63
2022-11-08T02:03:47.318Z,10.59
2022-11-08T02:06:14.957Z,10.56
2022-11-08T02:08:43.438Z,10.52
2022-11-08T02:11:14.095Z,10.46
2022-11-08T02:13:41.249Z,10.50
2022-11-08T02:16:13.536Z,10.51
2022-11-08T02:18:42.181Z,10.50
2022-11-08T02:21:27.139Z,10.46
2022-11-08T02:23:55.832Z,10.49
2022-11-08T02:26:33.586Z,10.45
2022-11-08T02:29:33.625Z,10.48
2022-11-08T02:32:01.825Z,10.49
2022-11-08T02:34:34.028Z,10.48
2022-11-08T02:37:02.328Z,10.49
2022-11-08T02:39:30.065Z,10.43
2022-11-08T02:41:56.632Z,10.44
2022-11-08T02:44:23.173Z,10.42
2022-11-08T02:46:50.006Z,10.44
2022-11-08T02:49:16.966Z,10.44
2022-11-08T02:51:43.547Z,10.42
2022-11-08T02:54:10.118Z,10.38
2022-11-08T02:56:36.685Z,10.40
2022-11-08T02:59:03.371Z,10.36
2022-11-08T03:01:30.018Z,10.30
2022-11-08T03:03:56.653Z,10.33
2022-11-08T03:06:23.217Z,10.32
2022-11-08T03:08:49.763Z,10.25
2022-11-08T03:11:16.338Z,10.23
2022-11-08T03:13:42.952Z,10.16
2022-11-08T03:16:09.509Z,10.13
2022-11-08T03:18:36.093Z,10.13
2022-11-08T03:21:02.772Z,10.08
2022-11-08T03:23:29.432Z,10.01
2022-11-08T03:25:56.033Z,10.06
2022-11-08T03:28:23.282Z,10.02
2022-11-08T03:30:52.686Z,9.94
2022-11-08T03:33:20.770Z,9.96
2022-11-08T03:35:51.382Z,9.96
2022-11-08T03:38:18.771Z,9.89
2022-11-08T03:40:46.130Z,9.93
2022-11-08T03:43:12.987Z,9.93
2022-11-08T03:45:39.551Z,9.95
2022-11-08T03:48:06.597Z,9.98
2022-11-08T03:50:33.414Z,9.96
2022-11-08T03:53:00.092Z,9.88
2022-11-08T03:55:28.168Z,9.87
2022-11-08T03:57:55.860Z,9.83
2022-11-08T04:00:25.255Z,9.81
2022-11-08T04:02:52.309Z,9.80
2022-11-08T04:05:19.367Z,9.82
2022-11-08T04:07:46.867Z,9.78
2022-11-08T04:10:13.953Z,9.77
2022-11-08T04:13:00.830Z,9.78
2022-11-08T04:15:29.044Z,9.76
2022-11-08T04:18:14.655Z,9.73
2022-11-08T04:21:01.296Z,9.84
2022-11-08T04:23:29.044Z,9.78
2022-11-08T04:25:57.972Z,9.81
2022-11-08T04:28:26.445Z,9.68
2022-11-08T04:30:57.462Z,9.69
2022-11-08T04:33:24.705Z,9.72
2022-11-08T04:35:51.718Z,9.62
2022-11-08T04:38:18.958Z,9.67
2022-11-08T04:40:45.855Z,9.67
2022-11-08T04:43:13.219Z,9.63
2022-11-08T04:45:41.118Z,9.58
2022-11-08T04:48:08.115Z,9.56
2022-11-08T04:50:34.828Z,9.55
2022-11-08T04:53:01.978Z,9.58
2022-11-08T04:55:28.606Z,9.53
2022-11-08T04:57:58.997Z,9.58
2022-11-08T05:00:26.168Z,9.59
2022-11-08T05:02:52.844Z,9.61
2022-11-08T05:05:19.681Z,9.63
2022-11-08T05:07:46.237Z,9.68
2022-11-08T05:10:12.965Z,9.67
2022-11-08T05:12:39.563Z,9.76
2022-11-08T05:15:06.941Z,9.82
2022-11-08T05:17:33.497Z,9.90
2022-11-08T05:20:29.305Z,9.93
2022-11-08T05:23:19.732Z,9.92
2022-11-08T05:25:46.475Z,9.93
2022-11-08T05:28:13.332Z,9.92
2022-11-08T05:30:39.904Z,9.95
2022-11-08T05:33:06.510Z,9.99
2022-11-08T05:35:34.224Z,10.07
2022-11-08T05:38:00.847Z,10.17
2022-11-08T05:40:33.019Z,10.16
2022-11-08T05:43:00.159Z,10.22
2022-11-08T05:45:26.826Z,10.21
2022-11-08T05:47:53.440Z,10.23
2022-11-08T05:50:20.283Z,10.25
2022-11-08T05:52:46.889Z,10.18
2022-11-08T05:55:13.524Z,10.15
2022-11-08T05:57:43.791Z,10.25
2022-11-08T06:00:11.997Z,10.28
2022-11-08T06:02:39.618Z,10.39
2022-11-08T06:05:07.851Z,10.35
2022-11-08T06:07:35.086Z,10.45
2022-11-08T06:10:01.997Z,10.50
2022-11-08T06:12:29.034Z,10.66
2022-11-08T06:14:55.660Z,10.69
2022-11-08T06:17:26.169Z,10.70
2022-11-08T06:19:55.766Z,10.75
2022-11-08T06:22:22.350Z,10.82
2022-11-08T06:24:48.925Z,10.85
2022-11-08T06:27:15.879Z,10.82
2022-11-08T06:29:42.559Z,10.90
2022-11-08T06:32:10.449Z,10.91
2022-11-08T06:34:37.210Z,11.01
2022-11-08T06:37:05.063Z,11.08
2022-11-08T06:39:31.756Z,11.16
2022-11-08T06:41:58.334Z,11.31
2022-11-08T06:44:24.950Z,11.40
2022-11-08T06:46:51.479Z,11.41
2022-11-08T06:49:18.200Z,11.41
2022-11-08T06:51:44.775Z,11.47
2022-11-08T06:54:16.818Z,11.59
2022-11-08T06:56:45.583Z,11.65
2022-11-08T06:59:12.337Z,11.71
2022-11-08T07:01:42.094Z,11.74
2022-11-08T07:04:11.984Z,11.75
2022-11-08T07:06:38.759Z,11.75
2022-11-08T07:09:05.370Z,11.88
2022-11-08T07:11:31.938Z,11.90
2022-11-08T07:13:58.490Z,11.85
2022-11-08T07:16:25.370Z,11.86
2022-11-08T07:18:52.164Z,11.82
2022-11-08T07:21:18.907Z,11.70
2022-11-08T07:23:45.546Z,11.85
2022-11-08T07:26:13.219Z,12.02
2022-11-08T07:28:40.473Z,11.84
2022-11-08T07:31:08.368Z,11.93
2022-11-08T07:33:35.459Z,12.04
2022-11-08T07:36:02.786Z,11.85
2022-11-08T07:38:29.544Z,11.98
2022-11-08T07:40:58.246Z,12.02
2022-11-08T07:43:26.090Z,12.09
2022-11-08T07:45:57.945Z,12.17
2022-11-08T07:48:25.727Z,12.28
2022-11-08T07:50:52.402Z,12.37
2022-11-08T07:53:19.417Z,12.57
2022-11-08T07:55:48.180Z,12.70
2022-11-08T07:58:15.473Z,12.87
2022-11-08T08:00:43.548Z,13.13
2022-11-08T08:03:13.861Z,13.11
2022-11-08T08:05:45.723Z,13.32
2022-11-08T08:08:13.580Z,13.42
2022-11-08T08:10:41.271Z,13.49
2022-11-08T08:13:08.309Z,13.59
2022-11-08T08:15:35.071Z,13.67
2022-11-08T08:18:07.107Z,13.72
2022-11-08T08:20:34.785Z,13.77
2022-11-08T08:23:01.508Z,13.81
2022-11-08T08:25:31.036Z,13.82
2022-11-08T08:28:00.792Z,13.84
2022-11-08T08:30:29.110Z,13.86
2022-11-08T08:33:27.410Z,13.89
2022-11-08T08:35:54.903Z,13.88
2022-11-08T08:38:23.893Z,13.79
2022-11-08T08:40:51.316Z,14.13
2022-11-08T08:43:18.323Z,14.18
2022-11-08T08:45:45.096Z,14.28
2022-11-08T08:48:11.678Z,14.35
2022-11-08T08:50:38.481Z,14.35
2022-11-08T08:53:06.147Z,14.42
2022-11-08T08:55:36.746Z,14.51
2022-11-08T08:58:03.709Z,14.64
2022-11-08T09:03:17.451Z,14.75
2022-11-08T09:05:46.617Z,14.71
2022-11-08T09:08:14.678Z,14.77
2022-11-08T09:10:41.623Z,14.86
2022-11-08T09:13:08.170Z,14.82
2022-11-08T09:15:34.765Z,14.62
2022-11-08T09:18:01.425Z,14.42
2022-11-08T09:20:28.206Z,14.53
2022-11-08T09:22:54.857Z,14.43
2022-11-08T09:25:21.501Z,14.38
2022-11-08T09:27:48.072Z,14.37
2022-11-08T09:30:14.681Z,14.29
2022-11-08T09:35:27.917Z,14.45
2022-11-08T09:37:55.133Z,14.47
2022-11-08T09:40:38.594Z,14.35
2022-11-08T09:43:17.621Z,14.32
2022-11-08T09:45:46.927Z,14.38
2022-11-08T09:48:27.378Z,14.33
2022-11-08T09:50:55.514Z,14.38
2022-11-08T09:53:35.372Z,14.53
2022-11-08T09:56:11.097Z,14.54
2022-11-08T09:59:02.086Z,14.64
2022-11-08T10:01:36.647Z,14.66
2022-11-08T10:04:14.590Z,14.74
2022-11-08T10:06:46.238Z,14.89
2022-11-08T10:09:27.774Z,14.97
2022-11-08T10:12:12.479Z,14.97
2022-11-08T10:14:53.868Z,14.86
2022-11-08T10:17:31.468Z,14.87
2022-11-08T10:20:19.624Z,14.82
2022-11-08T10:23:21.643Z,14.81
2022-11-08T10:25:54.473Z,15.00
2022-11-08T10:28:26.408Z,15.18
2022-11-08T10:30:55.426Z,15.15
2022-11-08T10:33:50.947Z,15.12
2022-11-08T10:36:41.934Z,15.05
2022-11-08T10:39:11.348Z,14.89
2022-11-08T10:41:56.186Z,14.80
2022-11-08T10:44:24.604Z,14.81
2022-11-08T10:46:57.106Z,14.96
2022-11-08T10:49:27.020Z,14.98
2022-11-08T10:52:16.640Z,14.90
2022-11-08T10:54:51.818Z,14.88
2022-11-08T10:57:31.779Z,14.76
2022-11-08T11:00:15.641Z,14.75
2022-11-08T11:02:43.186Z,14.86
2022-11-08T11:05:31.564Z,14.89
2022-11-08T11:08:02.379Z,14.88
2022-11-08T11:10:30.655Z,14.89
2022-11-08T11:13:23.821Z,14.92
2022-11-08T11:15:53.264Z,14.83
2022-11-08T11:18:33.050Z,14.99
2022-11-08T11:21:37.237Z,14.97
2022-11-08T11:24:20.327Z,14.99
2022-11-08T11:27:07.746Z,15.16
2022-11-08T11:29:35.543Z,15.25
2022-11-08T11:32:23.341Z,15.36
2022-11-08T11:34:56.789Z,15.59
2022-11-08T11:37:42.228Z,15.64
2022-11-08T11:40:24.425Z,15.61
2022-11-08T11:43:25.456Z,15.64
2022-11-08T11:46:08.945Z,15.69
2022-11-08T11:48:47.597Z,15.70
2022-11-08T11:51:14.274Z,15.98
2022-11-08T11:53:47.383Z,16.44
2022-11-08T11:56:27.209Z,16.93
2022-11-08T11:59:24.864Z,17.04
2022-11-08T12:02:15.882Z,16.50
2022-11-08T12:04:45.215Z,16.24
2022-11-08T12:07:20.214Z,16.03
2022-11-08T12:10:01.620Z,15.86
2022-11-08T12:12:49.534Z,15.80
2022-11-08T12:15:24.128Z,15.73
2022-11-08T12:18:43.594Z,15.66
2022-11-08T12:21:36.999Z,15.71
2022-11-08T12:24:39.637Z,15.55
2022-11-08T12:27:44.473Z,15.68
2022-11-08T12:30:20.266Z,15.71
2022-11-08T12:33:37.720Z,15.81
2022-11-08T12:36:16.905Z,16.34
2022-11-08T12:39:23.386Z,16.63
2022-11-08T12:42:06.223Z,16.74
2022-11-08T12:44:54.081Z,16.60
2022-11-08T12:47:46.177Z,16.35
2022-11-08T12:50:20.837Z,16.89
2022-11-08T12:53:07.626Z,16.74
2022-11-08T12:55:41.936Z,16.54
2022-11-08T12:58:37.638Z,16.48
2022-11-08T13:01:12.649Z,16.42
2022-11-08T13:03:42.762Z,16.37
2022-11-08T13:06:47.312Z,16.24
2022-11-08T13:09:38.972Z,16.11
2022-11-08T13:12:44.835Z,16.04
2022-11-08T13:15:18.935Z,15.91
2022-11-08T13:18:07.313Z,15.73
2022-11-08T13:20:46.177Z,15.62
2022-11-08T13:23:28.727Z,15.48
2022-11-08T13:26:12.144Z,15.45
2022-11-08T13:28:38.754Z,15.42
2022-11-08T13:31:17.386Z,15.32
2022-11-08T13:33:56.832Z,15.43
2022-11-08T13:36:49.602Z,15.44
2022-11-08T13:39:26.059Z,15.41
2022-11-08T13:42:29.396Z,15.49
2022-11-08T13:44:55.897Z,15.50
2022-11-08T13:47:34.648Z,15.66
2022-11-08T13:50:29.063Z,15.64
2022-11-08T13:53:27.249Z,15.64
2022-11-08T13:55:58.322Z,15.70
2022-11-08T13:58:37.798Z,15.79
2022-11-08T14:01:22.871Z,15.79
2022-11-08T14:03:54.042Z,15.73
2022-11-08T14:06:55.717Z,15.64
2022-11-08T14:09:43.419Z,15.51
2022-11-08T14:12:34.702Z,15.44
2022-11-08T14:15:15.777Z,15.35
2022-11-08T14:17:51.551Z,15.28
2022-11-08T14:20:23.233Z,15.20
2022-11-08T14:22:50.667Z,15.16
2022-11-08T14:25:35.742Z,15.06
2022-11-08T14:28:03.952Z,15.02
2022-11-08T14:30:32.123Z,14.96
2022-11-08T14:33:20.664Z,14.89
2022-11-08T14:36:01.274Z,14.83
2022-11-08T14:38:30.510Z,14.81
2022-11-08T14:41:00.228Z,14.70
2022-11-08T14:43:27.761Z,14.56
2022-11-08T14:45:58.055Z,14.47
2022-11-08T14:48:28.641Z,14.41
2022-11-08T14:51:00.422Z,14.33
2022-11-08T14:53:44.497Z,14.25
2022-11-08T14:56:16.232Z,14.14
2022-11-08T14:58:43.517Z,14.02
2022-11-08T15:01:12.054Z,13.98
2022-11-08T15:03:44.022Z,13.84
2022-11-08T15:06:14.229Z,13.76
2022-11-08T15:08:51.934Z,13.68
2022-11-08T15:11:31.059Z,13.59
2022-11-08T15:14:07.169Z,13.55
2022-11-08T15:16:45.832Z,13.45
2022-11-08T15:19:44.439Z,13.31
2022-11-08T15:22:31.998Z,13.19
2022-11-08T15:25:03.220Z,13.12
2022-11-08T15:27:29.936Z,13.11
2022-11-08T15:30:08.554Z,12.97
2022-11-08T15:32:39.925Z,12.98
2022-11-08T15:35:19.361Z,12.86
2022-11-08T15:37:48.529Z,12.78
2022-11-08T15:40:23.861Z,12.72
2022-11-08T15:42:52.200Z,12.68
2022-11-08T15:45:20.539Z,12.63
2022-11-08T15:47:48.280Z,12.51
2022-11-08T15:50:20.058Z,12.54
2022-11-08T15:52:49.721Z,12.45
2022-11-08T15:55:19.314Z,12.37
2022-11-08T15:57:47.659Z,12.40
2022-11-08T16:00:17.990Z,12.39
2022-11-08T16:02:45.264Z,12.31
2022-11-08T16:05:26.741Z,12.26
2022-11-08T16:07:54.225Z,12.27
2022-11-08T16:10:32.140Z,12.24
2022-11-08T16:13:01.051Z,12.24
2022-11-08T16:15:32.216Z,12.19
2022-11-08T16:17:59.868Z,12.14
2022-11-08T16:20:30.488Z,12.13
2022-11-08T16:22:59.106Z,12.11
2022-11-08T16:25:28.086Z,12.14
2022-11-08T16:28:02.668Z,12.10
2022-11-08T16:30:31.527Z,12.07
2022-11-08T16:32:58.462Z,12.11
2022-11-08T16:35:25.945Z,12.10
2022-11-08T16:37:53.624Z,12.10
2022-11-08T16:40:22.667Z,12.03
2022-11-08T16:42:51.724Z,12.02
2022-11-08T16:45:37.270Z,11.91
2022-11-08T16:48:08.031Z,11.95
2022-11-08T16:50:34.767Z,12.01
2022-11-08T16:53:04.106Z,12.04
2022-11-08T16:55:30.774Z,12.11
2022-11-08T16:57:57.772Z,12.11
2022-11-08T17:00:24.318Z,12.13
2022-11-08T17:02:52.708Z,12.18
2022-11-08T17:05:22.372Z,12.19
2022-11-08T17:07:53.324Z,12.25
2022-11-08T17:10:25.740Z,12.25
2022-11-08T17:12:53.086Z,12.24
2022-11-08T17:15:23.058Z,12.24
2022-11-08T17:17:51.885Z,12.15
2022-11-08T17:20:22.592Z,12.16
2022-11-08T17:22:49.967Z,12.15
2022-11-08T17:25:21.838Z,12.18
2022-11-08T17:27:50.216Z,12.16
2022-11-08T17:30:20.180Z,12.08
2022-11-08T17:32:49.476Z,12.08
2022-11-08T17:35:16.121Z,12.07
2022-11-08T17:37:42.856Z,12.11
2022-11-08T17:40:09.794Z,12.03
2022-11-08T17:42:38.331Z,12.01
2022-11-08T17:45:10.263Z,11.97
2022-11-08T17:47:37.672Z,12.04
2022-11-08T17:50:06.141Z,12.02
2022-11-08T17:52:33.011Z,12.04
2022-11-08T17:54:59.595Z,12.03
2022-11-08T17:57:26.269Z,11.95
2022-11-08T17:59:53.116Z,11.91
2022-11-08T18:02:19.918Z,11.93
2022-11-08T18:04:46.612Z,12.00
2022-11-08T18:07:13.259Z,11.91
2022-11-08T18:09:40.004Z,11.91
2022-11-08T18:12:06.700Z,11.88
2022-11-08T18:14:33.368Z,11.90
2022-11-08T18:17:00.074Z,11.94
2022-11-08T18:19:26.685Z,11.98
2022-11-08T18:21:53.314Z,11.94
2022-11-08T18:24:20.274Z,12.06
2022-11-08T18:26:46.881Z,12.08
2022-11-08T18:29:13.635Z,12.12
2022-11-08T18:31:40.491Z,12.14
2022-11-08T18:34:07.125Z,12.16
2022-11-08T18:36:33.803Z,12.12
2022-11-08T18:39:01.214Z,12.17
2022-11-08T18:41:31.009Z,12.17
2022-11-08T18:43:59.337Z,12.16
2022-11-08T18:46:28.839Z,12.17
2022-11-08T18:48:55.475Z,12.18
2022-11-08T18:51:22.888Z,12.18
2022-11-08T18:53:52.393Z,12.17
2022-11-08T18:56:19.906Z,12.13
2022-11-08T18:58:47.130Z,11.99
2022-11-08T19:01:15.055Z,12.05
2022-11-08T19:03:42.251Z,12.03
2022-11-08T19:06:09.158Z,11.98
2022-11-08T19:08:36.990Z,11.95
2022-11-08T19:11:09.444Z,11.93
2022-11-08T19:13:38.888Z,11.94
2022-11-08T19:16:10.206Z,11.91
2022-11-08T19:18:37.731Z,11.92
2022-11-08T19:21:07.889Z,11.84
2022-11-08T19:23:35.179Z,11.78
2022-11-08T19:26:04.690Z,11.80
2022-11-08T19:28:36.904Z,11.86
2022-11-08T19:31:04.142Z,11.90
2022-11-08T19:33:32.288Z,11.88
2022-11-08T19:36:12.652Z,11.91
2022-11-08T19:38:40.444Z,11.83
2022-11-08T19:41:12.505Z,11.76
2022-11-08T19:43:41.094Z,11.73
2022-11-08T19:46:11.993Z,11.71
2022-11-08T19:48:41.216Z,11.65
2022-11-08T19:51:13.564Z,11.74
2022-11-08T19:53:41.192Z,11.72
2022-11-08T19:56:09.985Z,11.73
2022-11-08T19:58:38.167Z,11.67
2022-11-08T20:01:13.793Z,11.57
2022-11-08T20:03:40.583Z,11.55
2022-11-08T20:06:08.507Z,11.56
2022-11-08T20:08:35.532Z,11.53
2022-11-08T20:11:14.310Z,11.50
2022-11-08T20:13:41.020Z,11.40
2022-11-08T20:16:16.402Z,11.28
2022-11-08T20:18:43.597Z,11.31
2022-11-08T20:21:11.633Z,11.36
2022-11-08T20:23:38.885Z,11.26
2022-11-08T20:26:07.737Z,11.32
2022-11-08T20:28:36.349Z,11.28
2022-11-08T20:31:10.817Z,11.26
2022-11-08T20:33:39.549Z,11.27
2022-11-08T20:36:08.397Z,11.21
2022-11-08T20:38:36.902Z,11.20
2022-11-08T20:41:05.371Z,11.15
2022-11-08T20:43:33.026Z,11.13
2022-11-08T20:46:08.215Z,11.10
2022-11-08T20:48:34.928Z,11.11
2022-11-08T20:51:04.136Z,11.05
2022-11-08T20:53:32.570Z,11.05
2022-11-08T20:56:00.982Z,11.01
2022-11-08T20:58:29.324Z,11.05
2022-11-08T21:00:58.735Z,11.00
2022-11-08T21:03:26.543Z,10.92
2022-11-08T21:05:55.270Z,10.91
2022-11-08T21:11:11.499Z,10.96
2022-11-08T21:13:40.101Z,10.91
2022-11-08T21:16:28.228Z,10.83
2022-11-08T21:18:54.236Z,10.80
2022-11-08T21:21:22.424Z,10.75
2022-11-08T21:23:49.303Z,10.73
2022-11-08T21:26:18.313Z,10.69
2022-11-08T21:28:45.146Z,10.75
2022-11-08T21:31:12.403Z,10.69
2022-11-08T21:33:39.076Z,10.70
2022-11-08T21:36:06.449Z,10.70
2022-11-08T21:38:36.003Z,10.64
2022-11-08T21:41:05.543Z,10.62
2022-11-08T21:43:42.958Z,10.75
2022-11-08T21:46:24.530Z,10.63
2022-11-08T21:48:59.094Z,10.53
2022-11-08T21:51:26.852Z,10.49
2022-11-08T21:53:55.966Z,10.48
2022-11-08T21:56:25.129Z,10.44
2022-11-08T21:58:52.241Z,10.44
2022-11-08T22:01:18.946Z,10.47
2022-11-08T22:03:46.703Z,10.51
2022-11-08T22:06:13.690Z,10.44
2022-11-08T22:08:40.284Z,10.45
2022-11-08T22:11:06.913Z,10.43
2022-11-08T22:13:33.827Z,10.36
2022-11-08T22:16:00.439Z,10.38
2022-11-08T22:18:43.559Z,10.28
2022-11-08T22:21:32.129Z,10.34
2022-11-08T22:23:58.682Z,10.31
2022-11-08T22:26:25.231Z,10.31
2022-11-08T22:28:51.812Z,10.21
2022-11-08T22:31:18.345Z,10.20
2022-11-08T22:33:44.857Z,10.16
2022-11-08T22:36:12.021Z,10.21
2022-11-08T22:38:38.942Z,10.18
2022-11-08T22:41:05.919Z,10.18
2022-11-08T22:43:34.397Z,10.13
2022-11-08T22:46:00.992Z,10.13
2022-11-08T22:48:27.596Z,10.13
2022-11-08T22:50:54.212Z,10.14
2022-11-08T22:53:21.087Z,10.17
2022-11-08T22:55:47.844Z,10.22
2022-11-08T22:58:14.661Z,10.17
2022-11-08T23:03:28.382Z,10.10
2022-11-08T23:05:57.095Z,10.17
2022-11-08T23:08:25.778Z,10.13
2022-11-08T23:11:11.192Z,10.07
2022-11-08T23:13:56.532Z,10.14
2022-11-08T23:16:35.290Z,10.09
2022-11-08T23:19:47.780Z,10.09
2022-11-08T23:22:35.690Z,10.06
2022-11-08T23:25:02.338Z,10.11
2022-11-08T23:27:47.568Z,10.11
2022-11-08T23:30:35.328Z,10.06
2022-11-08T23:33:04.171Z,10.13
2022-11-08T23:35:30.709Z,10.11
2022-11-08T23:37:57.314Z,10.11
2022-11-08T23:40:42.569Z,10.05
2022-11-08T23:43:36.282Z,10.12
2022-11-08T23:46:11.322Z,10.08
2022-11-08T23:48:39.654Z,10.01
2022-11-08T23:51:07.348Z,10.03
2022-11-08T23:53:36.870Z,10.05
2022-11-08T23:56:04.304Z,10.01
2022-11-08T23:58:31.944Z,10.01
